Terminal Aerodrome Forecast
Issued by NWS Grand Forks, ND

Home | Current Version | Previous Version | Text Only | Print | Product List | Glossary On
Versions: 1 2 3 4 5 6 7 8 9 10 11 12 13 14 15 16
998
FTUS43 KFGF 251720
TAFFAR
TAF
KFAR 251720Z 2518/2618 30011KT P6SM SCT025 OVC040
      TEMPO 2518/2520 -SHRA BKN025
     FM260000 32006KT P6SM SCT050
     FM260100 30005KT P6SM SCT250
     FM260300 00000KT P6SM FEW250
     FM261400 20006KT P6SM FEW250=

USA.gov is the U.S. government's official web portal to all federal, state and local government web resources and services.